Time;durP1;ratioP1;P1;durP2;ratioP2;P2;SDS_P1;SDS_P2;PMS_P1;PMS_P2;Temp;Humidity;BMP_temperature;BMP_pressure;BME280_temperature;BME280_humidity;BME280_pressure;Samples;Min_cycle;Max_cycle;Signal;HPM_P1;HPM_P2
2023/09/21 00:01:38;;;;;;;2.08;1.75;;;19.10;99.90;;;;;;5086665;28;20193;-68
2023/09/21 00:04:07;;;;;;;1.58;1.48;;;19.10;99.90;;;;;;5081201;28;20674;-68
2023/09/21 00:06:36;;;;;;;1.65;1.55;;;19.10;99.90;;;;;;5082555;28;20216;-68
2023/09/21 00:09:04;;;;;;;1.65;1.55;;;19.10;99.90;;;;;;5090483;28;20265;-68
2023/09/21 00:11:31;;;;;;;1.40;1.30;;;19.10;99.90;;;;;;5077831;28;20197;-68
2023/09/21 00:13:58;;;;;;;6.82;2.63;;;19.00;99.90;;;;;;5051678;28;20699;-68
2023/09/21 00:16:27;;;;;;;1.90;1.80;;;19.00;99.90;;;;;;5081161;28;20196;-68
2023/09/21 00:18:55;;;;;;;1.90;1.80;;;19.00;99.90;;;;;;5073587;28;20221;-68
2023/09/21 00:21:23;;;;;;;3.25;1.67;;;19.00;99.90;;;;;;5071021;28;20246;-68
2023/09/21 00:23:51;;;;;;;1.80;1.70;;;18.90;99.90;;;;;;5085384;28;20215;-68
2023/09/21 00:26:18;;;;;;;2.17;1.75;;;18.90;99.90;;;;;;5065370;28;20620;-68
2023/09/21 00:28:50;;;;;;;1.73;1.63;;;18.90;99.90;;;;;;5089457;28;20211;-68
2023/09/21 00:31:17;;;;;;;1.60;1.50;;;18.90;99.90;;;;;;5088095;28;20205;-69
2023/09/21 00:33:44;;;;;;;1.40;1.30;;;18.80;99.90;;;;;;5091092;28;20536;-69
2023/09/21 00:36:16;;;;;;;1.50;1.40;;;18.80;99.90;;;;;;5089765;28;20188;-69
2023/09/21 00:38:46;;;;;;;1.60;1.50;;;18.80;99.90;;;;;;5077679;28;20213;-69
2023/09/21 00:41:13;;;;;;;2.08;1.88;;;18.90;99.90;;;;;;5064370;28;20196;-69
2023/09/21 00:43:41;;;;;;;1.30;1.20;;;18.90;99.90;;;;;;5076763;28;20196;-69
2023/09/21 00:46:08;;;;;;;1.30;1.20;;;18.80;99.90;;;;;;5087270;28;20288;-68
2023/09/21 00:48:42;;;;;;;1.60;1.27;;;18.90;99.90;;;;;;5061715;28;20228;-68
2023/09/21 00:51:12;;;;;;;1.60;1.30;;;18.90;99.90;;;;;;5062186;28;20619;-69
2023/09/21 00:53:44;;;;;;;1.98;1.70;;;18.90;99.90;;;;;;5083975;28;20205;-68
2023/09/21 00:56:13;;;;;;;1.77;1.67;;;18.80;99.90;;;;;;5075315;28;20273;-68
2023/09/21 00:58:44;;;;;;;2.15;1.55;;;18.80;99.90;;;;;;5081562;28;20192;-69
2023/09/21 01:01:18;;;;;;;1.38;1.27;;;18.80;99.90;;;;;;5066167;28;20216;-69
2023/09/21 01:03:48;;;;;;;1.48;1.10;;;18.80;99.90;;;;;;5070192;28;20200;-69
2023/09/21 01:06:18;;;;;;;1.95;1.70;;;18.80;99.90;;;;;;5066447;28;20220;-69
2023/09/21 01:08:45;;;;;;;1.50;1.20;;;18.80;99.90;;;;;;5093110;28;20277;-69
2023/09/21 01:11:14;;;;;;;1.00;0.90;;;18.80;99.90;;;;;;5075465;28;20200;-69
2023/09/21 01:13:44;;;;;;;1.05;1.05;;;18.70;99.90;;;;;;5070152;28;20989;-69
2023/09/21 01:16:15;;;;;;;1.23;1.13;;;18.70;99.90;;;;;;5091193;28;20238;-69
2023/09/21 01:18:42;;;;;;;1.70;1.60;;;18.80;99.90;;;;;;5086222;28;20197;-69
2023/09/21 01:21:10;;;;;;;1.67;1.58;;;18.70;99.90;;;;;;5080681;28;20247;-69
2023/09/21 01:23:42;;;;;;;1.77;1.67;;;18.70;99.90;;;;;;5086554;28;20664;-69
2023/09/21 01:26:10;;;;;;;1.33;1.23;;;18.70;99.90;;;;;;5088511;28;20276;-70
2023/09/21 01:28:38;;;;;;;1.40;1.30;;;18.70;99.90;;;;;;5074765;28;20245;-70
2023/09/21 01:31:06;;;;;;;1.65;1.52;;;18.60;99.90;;;;;;5082358;28;20213;-70
2023/09/21 01:33:34;;;;;;;1.40;1.30;;;18.60;99.90;;;;;;5073410;28;20200;-70
2023/09/21 01:36:01;;;;;;;2.17;1.45;;;18.60;99.90;;;;;;5083070;28;20199;-69
2023/09/21 01:38:28;;;;;;;1.40;1.30;;;18.60;99.90;;;;;;5092082;28;20266;-70
2023/09/21 01:40:59;;;;;;;1.88;1.27;;;18.60;99.90;;;;;;5061572;28;20199;-69
2023/09/21 01:43:26;;;;;;;1.10;0.90;;;18.60;99.90;;;;;;5071162;28;20192;-69
2023/09/21 01:45:53;;;;;;;2.92;1.30;;;18.60;99.90;;;;;;5087727;28;20199;-69
2023/09/21 01:48:20;;;;;;;1.30;1.20;;;18.60;99.90;;;;;;5090008;28;20212;-70
2023/09/21 01:50:48;;;;;;;1.23;1.13;;;18.60;99.90;;;;;;5083857;28;20266;-69
2023/09/21 01:53:16;;;;;;;2.45;1.00;;;18.60;99.90;;;;;;5091400;28;20242;-69
2023/09/21 01:55:45;;;;;;;1.40;1.30;;;18.60;99.90;;;;;;5088494;28;20273;-69
2023/09/21 01:58:14;;;;;;;1.30;1.20;;;18.60;99.90;;;;;;5092531;28;20200;-70
2023/09/21 02:00:43;;;;;;;1.63;1.40;;;18.60;99.90;;;;;;5071703;28;20722;-69
2023/09/21 02:03:12;;;;;;;1.30;1.20;;;18.60;99.90;;;;;;5072018;28;20766;-69
2023/09/21 02:05:40;;;;;;;2.55;1.50;;;18.60;99.90;;;;;;5091697;28;20649;-70
2023/09/21 02:08:09;;;;;;;1.45;1.35;;;18.50;99.90;;;;;;5090432;28;20675;-69
2023/09/21 02:10:38;;;;;;;2.03;1.35;;;18.50;99.90;;;;;;5088117;28;20210;-69
2023/09/21 02:13:06;;;;;;;1.30;1.20;;;18.50;99.90;;;;;;5089716;28;20196;-70
2023/09/21 02:15:37;;;;;;;1.10;1.10;;;18.50;99.90;;;;;;5091879;28;20550;-70
2023/09/21 02:18:05;;;;;;;1.23;1.15;;;18.50;99.90;;;;;;5090695;28;20211;-70
2023/09/21 02:20:35;;;;;;;2.58;1.25;;;18.50;99.90;;;;;;5091943;28;20711;-70
2023/09/21 02:23:03;;;;;;;3.00;1.38;;;18.50;99.90;;;;;;5091279;28;20197;-69
2023/09/21 02:25:32;;;;;;;1.17;1.17;;;18.40;99.90;;;;;;5092010;28;20260;-70
2023/09/21 02:27:59;;;;;;;1.67;1.55;;;18.40;99.90;;;;;;5072668;28;20215;-69
2023/09/21 02:30:27;;;;;;;1.50;1.30;;;18.40;99.90;;;;;;5091148;28;20353;-69
2023/09/21 02:32:56;;;;;;;1.88;1.20;;;18.40;99.90;;;;;;5090333;28;20204;-69
2023/09/21 02:35:26;;;;;;;1.40;1.30;;;18.40;99.90;;;;;;5091354;28;20545;-69
2023/09/21 02:37:53;;;;;;;2.30;1.20;;;18.40;99.90;;;;;;5078566;28;20266;-69
2023/09/21 02:40:22;;;;;;;1.55;1.33;;;18.40;99.90;;;;;;5071162;28;20189;-69
2023/09/21 02:42:52;;;;;;;1.17;1.10;;;18.40;99.90;;;;;;5076128;28;20209;-69
2023/09/21 02:45:20;;;;;;;1.30;1.20;;;18.40;99.90;;;;;;5059739;28;20636;-69
2023/09/21 02:47:51;;;;;;;1.60;1.50;;;18.40;99.90;;;;;;5078923;28;20671;-70
2023/09/21 02:50:22;;;;;;;2.33;1.30;;;18.30;99.90;;;;;;5071217;28;20750;-70
2023/09/21 02:52:54;;;;;;;1.33;1.23;;;18.30;99.90;;;;;;5071573;28;20197;-70
2023/09/21 02:55:23;;;;;;;2.55;1.40;;;18.20;99.90;;;;;;5069638;28;20205;-70
2023/09/21 02:57:55;;;;;;;1.95;1.40;;;18.20;99.90;;;;;;5063642;28;20203;-70
2023/09/21 03:00:27;;;;;;;1.30;1.30;;;18.20;99.90;;;;;;5070215;28;20671;-70
2023/09/21 03:02:57;;;;;;;1.35;1.25;;;18.20;99.90;;;;;;5089842;28;20189;-70
2023/09/21 03:05:27;;;;;;;2.05;1.30;;;18.20;99.90;;;;;;5072918;28;20735;-70
2023/09/21 03:07:54;;;;;;;1.10;1.10;;;18.20;99.90;;;;;;5072260;28;20239;-70
2023/09/21 03:10:22;;;;;;;1.15;1.00;;;18.20;99.90;;;;;;5066232;28;20205;-70
2023/09/21 03:12:51;;;;;;;1.20;1.13;;;18.20;99.90;;;;;;5071513;28;20204;-70
2023/09/21 03:15:22;;;;;;;1.10;1.10;;;18.20;99.90;;;;;;5077349;28;20671;-70
2023/09/21 03:17:53;;;;;;;1.40;1.30;;;18.20;99.90;;;;;;5070788;28;20211;-70
2023/09/21 03:20:32;;;;;;;1.73;1.42;;;18.20;99.90;;;;;;5090899;28;20236;-69
2023/09/21 03:23:05;;;;;;;3.05;1.38;;;18.20;99.90;;;;;;5090084;28;20246;-69
2023/09/21 03:25:33;;;;;;;1.23;1.20;;;18.20;99.90;;;;;;5089732;28;20199;-69
2023/09/21 03:28:02;;;;;;;1.27;1.17;;;18.20;99.90;;;;;;5090339;28;20200;-69
2023/09/21 03:30:31;;;;;;;1.30;1.20;;;18.20;99.90;;;;;;5072226;28;20200;-69
2023/09/21 03:32:59;;;;;;;1.55;1.38;;;18.20;99.90;;;;;;5070584;28;20281;-69
2023/09/21 03:35:27;;;;;;;1.75;1.40;;;18.10;99.90;;;;;;5083517;28;20303;-69
2023/09/21 03:37:57;;;;;;;1.85;1.40;;;18.10;99.90;;;;;;5072089;28;20192;-69
2023/09/21 03:40:25;;;;;;;1.27;1.23;;;18.20;99.90;;;;;;5084737;28;20196;-69
2023/09/21 03:42:54;;;;;;;1.20;1.10;;;18.20;99.90;;;;;;5089637;28;20199;-69
2023/09/21 03:45:24;;;;;;;1.25;1.15;;;18.20;99.90;;;;;;5088692;28;20553;-69
2023/09/21 03:47:51;;;;;;;2.97;1.40;;;18.20;99.90;;;;;;5058347;28;20262;-69
2023/09/21 03:50:18;;;;;;;1.42;1.20;;;18.20;99.90;;;;;;5085666;28;20204;-69
2023/09/21 03:52:47;;;;;;;2.05;1.42;;;18.10;99.90;;;;;;5088374;28;20193;-69
2023/09/21 03:55:16;;;;;;;1.30;1.30;;;18.20;99.90;;;;;;5063882;28;20216;-70
2023/09/21 03:57:46;;;;;;;1.50;1.02;;;18.10;99.90;;;;;;5077550;28;20664;-69
2023/09/21 04:00:29;;;;;;;1.50;1.17;;;18.10;99.90;;;;;;5070491;28;20243;-69
2023/09/21 04:02:58;;;;;;;1.40;1.30;;;18.20;99.90;;;;;;5069504;28;20208;-69
2023/09/21 04:05:26;;;;;;;2.10;1.40;;;18.20;99.90;;;;;;5081476;28;20319;-69
2023/09/21 04:07:54;;;;;;;1.40;1.30;;;18.10;99.90;;;;;;5081377;28;20200;-69
2023/09/21 04:10:21;;;;;;;1.90;1.67;;;18.10;99.90;;;;;;5068209;28;20698;-69
2023/09/21 04:12:54;;;;;;;2.15;2.00;;;18.10;99.90;;;;;;5084435;28;20671;-70
2023/09/21 04:15:22;;;;;;;2.28;1.95;;;18.10;99.90;;;;;;5086260;28;20208;-69
2023/09/21 04:17:49;;;;;;;2.20;1.58;;;18.00;99.90;;;;;;5066864;28;20211;-69
2023/09/21 04:20:18;;;;;;;1.65;1.55;;;18.00;99.90;;;;;;5086834;28;20244;-69
2023/09/21 04:22:47;;;;;;;1.85;1.75;;;18.00;99.90;;;;;;5070648;28;20299;-68
2023/09/21 04:25:16;;;;;;;2.15;1.92;;;17.90;99.90;;;;;;5071400;28;20189;-68
2023/09/21 04:27:44;;;;;;;1.73;1.60;;;17.90;99.90;;;;;;5070205;28;20235;-68
2023/09/21 04:30:15;;;;;;;2.13;1.60;;;17.90;99.90;;;;;;5087660;28;20212;-69
2023/09/21 04:32:45;;;;;;;1.15;1.15;;;17.90;99.90;;;;;;5086598;28;20291;-68
2023/09/21 04:35:13;;;;;;;1.48;1.38;;;17.80;99.90;;;;;;5066978;28;20251;-68
2023/09/21 04:37:40;;;;;;;1.70;1.60;;;17.90;99.90;;;;;;5065381;28;20347;-69
2023/09/21 04:40:10;;;;;;;2.15;1.60;;;17.90;99.90;;;;;;5075008;28;20246;-70
2023/09/21 04:42:40;;;;;;;1.83;1.67;;;17.90;99.90;;;;;;5065155;28;20204;-69
2023/09/21 04:45:09;;;;;;;2.08;1.70;;;17.90;99.90;;;;;;5059358;28;20243;-69
2023/09/21 04:47:39;;;;;;;1.75;1.50;;;17.90;99.90;;;;;;5068502;28;20571;-69
2023/09/21 04:50:10;;;;;;;1.65;1.55;;;17.90;99.90;;;;;;5068752;28;20213;-69
2023/09/21 04:52:38;;;;;;;1.80;1.70;;;17.90;99.90;;;;;;5086471;28;20201;-69
2023/09/21 04:55:08;;;;;;;1.83;1.48;;;17.80;99.90;;;;;;5089003;28;20847;-69
2023/09/21 04:57:36;;;;;;;1.70;1.60;;;17.80;99.90;;;;;;5077374;28;20593;-69
2023/09/21 05:00:07;;;;;;;1.30;1.20;;;17.90;99.90;;;;;;5070885;28;20254;-69
2023/09/21 05:02:34;;;;;;;1.52;1.42;;;17.80;99.90;;;;;;5086374;28;20205;-69
2023/09/21 05:05:03;;;;;;;1.85;1.40;;;17.80;99.90;;;;;;5070377;28;20201;-69
2023/09/21 05:07:32;;;;;;;2.05;1.38;;;17.70;99.90;;;;;;5070652;28;20313;-69
2023/09/21 05:09:59;;;;;;;2.10;1.60;;;17.70;99.90;;;;;;5070951;28;20248;-69
2023/09/21 05:12:27;;;;;;;2.67;1.48;;;17.70;99.90;;;;;;5089514;28;20196;-69
2023/09/21 05:14:54;;;;;;;3.92;1.63;;;17.70;99.90;;;;;;5070258;28;20311;-69
2023/09/21 05:17:22;;;;;;;1.80;1.70;;;17.70;99.90;;;;;;5078965;28;20219;-69
2023/09/21 05:19:50;;;;;;;1.58;1.45;;;17.70;99.90;;;;;;5069890;28;20722;-69
2023/09/21 05:22:18;;;;;;;1.52;1.42;;;17.70;99.90;;;;;;5088689;28;20374;-69
2023/09/21 05:24:46;;;;;;;3.75;1.55;;;17.70;99.90;;;;;;5088764;28;20247;-69
2023/09/21 05:27:13;;;;;;;2.35;1.58;;;17.70;99.90;;;;;;5070876;28;20648;-69
2023/09/21 05:29:41;;;;;;;2.00;1.80;;;17.70;99.90;;;;;;5088370;28;20681;-69
2023/09/21 05:32:08;;;;;;;1.83;1.70;;;17.70;99.90;;;;;;5088357;28;20204;-69
2023/09/21 05:34:36;;;;;;;2.28;2.10;;;17.70;99.90;;;;;;5087841;28;20280;-70
2023/09/21 05:37:03;;;;;;;2.75;2.10;;;17.70;99.90;;;;;;5078571;28;20189;-69
2023/09/21 05:39:31;;;;;;;1.58;1.40;;;17.70;99.90;;;;;;5076381;28;20193;-69
2023/09/21 05:41:58;;;;;;;2.08;1.73;;;17.70;99.90;;;;;;5092855;28;20197;-70
2023/09/21 05:44:25;;;;;;;2.30;2.10;;;17.70;99.90;;;;;;5091855;28;20253;-70
2023/09/21 05:46:53;;;;;;;2.40;1.92;;;17.70;99.90;;;;;;5092511;28;20207;-69
2023/09/21 05:49:22;;;;;;;2.53;2.30;;;17.70;99.90;;;;;;5091726;28;20217;-70
2023/09/21 05:51:52;;;;;;;3.15;2.50;;;17.70;99.90;;;;;;5091786;28;20275;-70
2023/09/21 05:54:23;;;;;;;4.40;2.42;;;17.70;99.90;;;;;;5078226;28;20205;-70
2023/09/21 05:56:52;;;;;;;3.42;2.00;;;17.70;99.90;;;;;;5092368;28;20196;-69
2023/09/21 05:59:19;;;;;;;3.42;2.33;;;17.70;99.90;;;;;;5092266;28;20200;-69
2023/09/21 06:01:48;;;;;;;3.50;3.10;;;17.70;99.90;;;;;;5088426;28;20195;-69
2023/09/21 06:04:16;;;;;;;4.53;2.70;;;17.70;99.90;;;;;;5072990;28;20659;-70
2023/09/21 06:06:44;;;;;;;4.35;2.63;;;17.70;99.90;;;;;;5091332;28;20223;-69
2023/09/21 06:09:12;;;;;;;4.97;3.40;;;17.70;99.90;;;;;;5092681;28;20213;-70
2023/09/21 06:11:39;;;;;;;4.65;3.15;;;17.70;99.90;;;;;;5089375;28;20212;-70
2023/09/21 06:14:08;;;;;;;2.50;2.30;;;17.70;99.90;;;;;;5071527;28;20216;-70
2023/09/21 06:16:35;;;;;;;2.30;1.92;;;17.70;99.90;;;;;;5086047;28;20193;-70
2023/09/21 06:19:02;;;;;;;6.25;2.80;;;17.70;99.90;;;;;;5089063;28;20755;-70
2023/09/21 06:21:30;;;;;;;6.43;3.35;;;17.70;99.90;;;;;;5089355;28;20249;-70
2023/09/21 06:23:57;;;;;;;3.28;2.97;;;17.70;99.90;;;;;;5090274;28;20258;-70
2023/09/21 06:26:24;;;;;;;7.95;3.63;;;17.70;99.90;;;;;;5089067;28;20197;-70
2023/09/21 06:28:51;;;;;;;4.57;3.30;;;17.70;99.90;;;;;;5089025;28;20220;-70
2023/09/21 06:31:21;;;;;;;3.90;3.00;;;17.80;99.90;;;;;;5086721;28;20211;-69
2023/09/21 06:33:49;;;;;;;3.42;2.63;;;17.80;99.90;;;;;;5088631;28;20188;-70
2023/09/21 06:36:19;;;;;;;3.15;2.60;;;17.80;99.90;;;;;;5084230;28;20630;-70
2023/09/21 06:38:46;;;;;;;3.03;2.00;;;17.80;99.90;;;;;;5088942;28;20287;-70
2023/09/21 06:41:14;;;;;;;4.43;3.20;;;17.90;99.90;;;;;;5089151;28;20197;-70
2023/09/21 06:43:42;;;;;;;9.38;4.40;;;18.00;99.90;;;;;;5071671;28;20217;-70
2023/09/21 06:46:09;;;;;;;4.22;3.65;;;18.00;99.90;;;;;;5082368;28;20232;-70
2023/09/21 06:48:38;;;;;;;4.28;3.42;;;18.00;99.90;;;;;;5087024;28;20811;-70
2023/09/21 06:51:07;;;;;;;6.13;3.65;;;18.00;99.90;;;;;;5076581;28;20209;-70
2023/09/21 06:53:36;;;;;;;4.82;4.22;;;18.00;99.90;;;;;;5089211;28;20189;-70
2023/09/21 06:56:03;;;;;;;4.80;4.13;;;18.00;99.90;;;;;;5087697;28;20258;-70
2023/09/21 06:58:30;;;;;;;3.65;3.22;;;18.10;99.90;;;;;;5088863;28;20228;-70
2023/09/21 07:00:58;;;;;;;3.45;3.15;;;18.10;99.90;;;;;;5068941;28;20721;-70
2023/09/21 07:03:25;;;;;;;5.95;3.33;;;18.20;99.90;;;;;;5079707;28;20201;-70
2023/09/21 07:05:54;;;;;;;4.68;3.47;;;18.20;99.90;;;;;;5089235;28;20642;-70
2023/09/21 07:08:21;;;;;;;4.57;3.05;;;18.30;99.90;;;;;;5080787;28;20255;-70
2023/09/21 07:10:49;;;;;;;4.35;3.25;;;18.40;99.90;;;;;;5086011;28;20304;-70
2023/09/21 07:13:18;;;;;;;3.53;3.22;;;18.40;99.90;;;;;;5086672;28;20315;-70
2023/09/21 07:15:47;;;;;;;6.00;4.80;;;18.50;99.90;;;;;;5071751;28;20246;-70
2023/09/21 07:18:15;;;;;;;7.38;4.65;;;18.60;99.90;;;;;;5088051;28;20213;-71
2023/09/21 07:20:42;;;;;;;6.07;4.50;;;18.60;99.90;;;;;;5089096;28;20733;-70
2023/09/21 07:23:10;;;;;;;6.38;3.78;;;18.70;99.90;;;;;;5089241;28;20254;-70
2023/09/21 07:25:38;;;;;;;5.18;4.13;;;18.70;99.90;;;;;;5089434;28;20216;-68
2023/09/21 07:28:06;;;;;;;4.00;3.60;;;18.80;99.90;;;;;;5089568;28;20726;-69
2023/09/21 07:30:34;;;;;;;4.07;3.50;;;18.80;99.90;;;;;;5080865;28;20706;-69
2023/09/21 07:33:01;;;;;;;6.35;3.80;;;18.90;99.90;;;;;;5087335;28;20575;-69
2023/09/21 07:35:29;;;;;;;7.68;3.90;;;19.00;99.90;;;;;;5089154;28;20547;-69
2023/09/21 07:37:56;;;;;;;5.25;3.97;;;19.00;99.90;;;;;;5065840;28;20193;-69
2023/09/21 07:40:25;;;;;;;6.15;4.28;;;19.10;99.90;;;;;;5068507;28;20260;-69
2023/09/21 07:42:52;;;;;;;5.60;3.97;;;19.20;99.90;;;;;;5083449;28;20254;-69
2023/09/21 07:45:22;;;;;;;5.15;4.60;;;19.30;99.90;;;;;;5079034;28;20227;-69
2023/09/21 07:47:49;;;;;;;5.50;4.15;;;19.40;99.90;;;;;;5069278;28;20549;-69
2023/09/21 07:50:18;;;;;;;4.00;3.53;;;19.60;99.90;;;;;;5088159;28;20212;-70
2023/09/21 07:52:46;;;;;;;5.43;3.72;;;20.80;99.90;;;;;;5085726;28;20287;-70
2023/09/21 07:55:13;;;;;;;4.15;3.05;;;22.70;99.90;;;;;;5066883;28;20192;-70
2023/09/21 07:57:42;;;;;;;4.53;2.92;;;24.50;99.90;;;;;;5086974;28;20188;-69
2023/09/21 08:00:10;;;;;;;2.42;2.22;;;26.20;99.90;;;;;;5093930;28;20291;-69
2023/09/21 08:02:38;;;;;;;2.60;2.40;;;27.60;98.90;;;;;;5092103;28;20437;-70
2023/09/21 08:05:06;;;;;;;4.13;2.50;;;28.70;95.90;;;;;;5084985;28;20196;-70
2023/09/21 08:07:33;;;;;;;2.40;2.20;;;29.30;93.80;;;;;;5087253;28;20189;-70
2023/09/21 08:10:03;;;;;;;2.67;2.15;;;29.90;92.30;;;;;;5083701;28;20216;-71
2023/09/21 08:12:31;;;;;;;2.42;2.22;;;30.50;91.20;;;;;;5083246;28;20226;-70
2023/09/21 08:15:00;;;;;;;1.90;1.67;;;30.10;90.40;;;;;;5065695;28;20216;-70
2023/09/21 08:17:29;;;;;;;4.38;2.60;;;28.90;91.20;;;;;;5069058;28;20216;-70
2023/09/21 08:19:57;;;;;;;2.50;2.28;;;27.70;92.30;;;;;;5082659;28;20244;-69
2023/09/21 08:22:26;;;;;;;7.88;2.55;;;26.50;93.80;;;;;;5084827;28;20200;-70
2023/09/21 08:24:53;;;;;;;3.97;2.35;;;25.50;94.90;;;;;;5084682;28;20281;-69
2023/09/21 08:27:22;;;;;;;4.22;2.80;;;24.90;95.90;;;;;;5080886;28;20208;-70
2023/09/21 08:29:49;;;;;;;2.90;2.60;;;24.20;96.80;;;;;;5078691;28;20213;-70
2023/09/21 08:32:18;;;;;;;3.13;2.83;;;23.60;97.80;;;;;;5079518;28;20201;-70
2023/09/21 08:34:45;;;;;;;2.75;2.28;;;23.20;98.80;;;;;;5078912;28;20189;-70
2023/09/21 08:37:12;;;;;;;2.95;2.65;;;22.90;99.60;;;;;;5074389;28;20304;-69
2023/09/21 08:39:39;;;;;;;3.42;2.72;;;22.60;99.90;;;;;;5081118;28;20192;-70
2023/09/21 08:42:09;;;;;;;2.83;1.90;;;22.40;99.90;;;;;;5085716;28;20282;-69
2023/09/21 08:44:40;;;;;;;2.65;2.08;;;22.30;99.90;;;;;;5082551;28;20201;-69
2023/09/21 08:47:12;;;;;;;3.00;2.70;;;22.20;99.90;;;;;;5081998;28;20321;-70
2023/09/21 08:49:45;;;;;;;2.75;2.40;;;22.10;99.90;;;;;;5085651;28;20231;-69
2023/09/21 08:52:14;;;;;;;2.72;2.53;;;22.10;99.90;;;;;;5086760;28;20192;-69
2023/09/21 08:54:42;;;;;;;3.83;2.30;;;22.10;99.90;;;;;;5090240;28;20307;-69
2023/09/21 08:57:10;;;;;;;3.08;2.78;;;22.00;99.90;;;;;;5085116;28;20204;-69
2023/09/21 08:59:42;;;;;;;2.60;2.40;;;21.90;99.90;;;;;;5086550;28;20559;-69
2023/09/21 09:02:13;;;;;;;3.22;2.33;;;21.90;99.90;;;;;;5085367;28;20215;-69
2023/09/21 09:04:41;;;;;;;2.50;2.30;;;21.80;99.90;;;;;;5086621;28;20334;-69
2023/09/21 09:07:09;;;;;;;2.63;2.30;;;21.90;99.90;;;;;;5085346;28;20197;-69
2023/09/21 09:09:39;;;;;;;2.63;2.42;;;21.90;99.90;;;;;;5087484;28;20212;-69
2023/09/21 09:12:21;;;;;;;6.07;2.40;;;21.90;99.90;;;;;;5086389;28;20311;-68
2023/09/21 09:14:48;;;;;;;2.20;2.08;;;21.90;99.90;;;;;;5085325;28;20185;-68
2023/09/21 09:17:16;;;;;;;2.65;2.28;;;22.00;99.90;;;;;;5089692;28;20558;-69
2023/09/21 09:19:46;;;;;;;2.38;2.20;;;22.00;99.90;;;;;;5089382;28;20252;-69
2023/09/21 09:22:15;;;;;;;2.47;2.08;;;22.10;99.90;;;;;;5047048;28;20250;-69
2023/09/21 09:24:43;;;;;;;2.38;2.03;;;22.20;99.90;;;;;;5059467;28;20313;-69
2023/09/21 09:27:10;;;;;;;2.83;1.85;;;22.20;99.90;;;;;;5055543;28;20584;-70
2023/09/21 09:29:48;;;;;;;3.13;2.10;;;22.30;99.90;;;;;;5090478;28;20220;-69
2023/09/21 09:32:18;;;;;;;2.13;1.95;;;22.40;99.90;;;;;;5090219;28;20200;-69
2023/09/21 09:34:47;;;;;;;3.35;2.33;;;22.50;99.90;;;;;;5085953;28;20224;-69
2023/09/21 09:37:15;;;;;;;4.50;2.22;;;23.00;99.90;;;;;;5083487;28;20216;-70
2023/09/21 09:39:44;;;;;;;3.33;2.22;;;23.80;99.90;;;;;;5091850;28;20673;-71
2023/09/21 09:42:12;;;;;;;2.17;1.98;;;24.20;99.90;;;;;;5086983;28;20207;-69
2023/09/21 09:44:44;;;;;;;3.85;2.03;;;24.30;99.60;;;;;;5070986;28;20205;-69
2023/09/21 09:47:13;;;;;;;2.17;2.00;;;24.50;99.30;;;;;;5062567;28;20225;-69
2023/09/21 09:49:44;;;;;;;3.72;2.00;;;25.60;98.30;;;;;;5090897;28;20287;-70
2023/09/21 09:52:18;;;;;;;2.75;2.28;;;27.50;96.10;;;;;;5086811;28;20197;-69
2023/09/21 09:54:47;;;;;;;2.03;1.80;;;29.30;92.90;;;;;;5078980;28;20627;-70
2023/09/21 09:57:17;;;;;;;2.15;1.88;;;30.50;90.60;;;;;;5066059;28;20248;-69
2023/09/21 09:59:45;;;;;;;2.05;1.85;;;31.30;87.00;;;;;;5073322;28;20307;-70
2023/09/21 10:02:17;;;;;;;2.10;1.90;;;31.30;84.00;;;;;;5089149;28;20276;-69
2023/09/21 10:04:46;;;;;;;2.00;1.85;;;31.30;81.80;;;;;;5084401;28;20616;-71
2023/09/21 10:07:16;;;;;;;2.15;1.73;;;31.20;80.50;;;;;;5082812;28;20249;-69
2023/09/21 10:09:45;;;;;;;3.08;1.77;;;31.20;80.50;;;;;;5085269;28;20983;-71
2023/09/21 10:12:13;;;;;;;1.80;1.70;;;31.50;79.30;;;;;;5085678;28;20196;-71
2023/09/21 10:14:43;;;;;;;1.52;1.42;;;31.80;78.60;;;;;;5085659;28;20292;-69
2023/09/21 10:17:13;;;;;;;1.77;1.67;;;32.30;77.50;;;;;;5063426;28;20239;-70
2023/09/21 10:19:43;;;;;;;2.08;1.88;;;32.50;75.50;;;;;;5078677;28;20237;-71
2023/09/21 10:22:28;;;;;;;2.03;1.90;;;32.60;75.40;;;;;;5089485;28;20204;-71
2023/09/21 10:24:58;;;;;;;2.10;1.70;;;32.50;72.80;;;;;;5086365;28;20189;-71
2023/09/21 10:27:28;;;;;;;2.03;1.45;;;32.40;73.40;;;;;;5088154;28;20564;-70
2023/09/21 10:30:06;;;;;;;1.98;1.80;;;32.20;71.90;;;;;;5086273;28;20220;-71
2023/09/21 10:32:42;;;;;;;1.70;1.60;;;32.20;72.10;;;;;;5071442;28;20239;-71
2023/09/21 10:35:12;;;;;;;2.25;2.05;;;32.30;72.30;;;;;;5084775;28;20245;-70
2023/09/21 10:37:42;;;;;;;1.80;1.70;;;32.40;71.10;;;;;;5086990;28;20194;-71
2023/09/21 10:40:20;;;;;;;1.95;1.85;;;32.20;70.80;;;;;;5089305;28;20193;-71
2023/09/21 10:42:47;;;;;;;1.63;1.52;;;32.00;70.40;;;;;;5089367;28;20196;-71
2023/09/21 10:45:14;;;;;;;1.58;1.48;;;32.00;71.50;;;;;;5087782;28;20197;-71
2023/09/21 10:47:47;;;;;;;2.08;1.90;;;32.00;70.90;;;;;;5084664;28;20278;-70
2023/09/21 10:50:15;;;;;;;1.80;1.70;;;32.10;70.30;;;;;;5087767;28;20517;-71
2023/09/21 10:52:45;;;;;;;1.73;1.52;;;32.20;70.10;;;;;;5057861;28;20537;-71
2023/09/21 10:55:14;;;;;;;2.42;2.22;;;32.40;70.00;;;;;;5086869;28;20188;-71
2023/09/21 10:57:43;;;;;;;2.20;1.98;;;32.30;68.10;;;;;;5077601;28;20317;-71
2023/09/21 11:00:20;;;;;;;2.92;2.05;;;32.10;68.10;;;;;;5079957;28;20292;-72
2023/09/21 11:02:50;;;;;;;3.58;1.63;;;32.00;67.90;;;;;;5088337;28;20651;-72
2023/09/21 11:05:19;;;;;;;2.10;1.90;;;31.90;68.20;;;;;;5089221;28;20200;-71
2023/09/21 11:07:50;;;;;;;2.10;1.92;;;31.80;68.50;;;;;;5089654;28;20647;-71
2023/09/21 11:10:18;;;;;;;2.20;2.00;;;32.00;68.90;;;;;;5083765;28;20212;-71
2023/09/21 11:12:45;;;;;;;2.03;1.83;;;32.10;68.80;;;;;;5084046;28;20200;-71
2023/09/21 11:15:16;;;;;;;3.80;2.00;;;32.20;68.30;;;;;;5082499;28;20528;-71
2023/09/21 11:17:44;;;;;;;3.47;2.28;;;32.00;67.70;;;;;;5088129;28;20865;-71
2023/09/21 11:20:14;;;;;;;1.60;1.50;;;31.80;67.60;;;;;;5084519;28;20548;-71
2023/09/21 11:22:42;;;;;;;2.85;1.70;;;31.50;68.50;;;;;;5077303;28;20305;-71
2023/09/21 11:25:14;;;;;;;1.73;1.63;;;31.30;69.30;;;;;;5058295;28;20224;-71
2023/09/21 11:27:42;;;;;;;2.28;2.08;;;31.00;69.90;;;;;;5083319;28;20613;-71
2023/09/21 11:30:13;;;;;;;1.80;1.70;;;30.80;70.70;;;;;;5070257;28;20197;-72
2023/09/21 11:32:44;;;;;;;3.67;2.20;;;30.90;71.40;;;;;;5086038;28;20252;-72
2023/09/21 11:35:12;;;;;;;2.22;2.13;;;30.90;70.20;;;;;;5086779;28;20201;-71
2023/09/21 11:37:40;;;;;;;2.38;2.03;;;30.80;69.90;;;;;;5080380;28;20276;-71
2023/09/21 11:40:12;;;;;;;3.08;2.05;;;30.60;69.90;;;;;;5086431;28;20204;-72
2023/09/21 11:42:44;;;;;;;2.92;2.30;;;30.50;70.20;;;;;;5069518;28;20283;-72
2023/09/21 11:45:17;;;;;;;5.65;2.17;;;30.20;70.00;;;;;;5073070;28;20193;-71
2023/09/21 11:47:49;;;;;;;1.73;1.63;;;29.80;70.30;;;;;;5088765;28;20238;-72
2023/09/21 11:50:21;;;;;;;3.97;1.70;;;29.50;71.30;;;;;;5087807;28;20193;-72
2023/09/21 11:52:54;;;;;;;2.65;1.83;;;29.30;72.30;;;;;;5088152;28;20188;-72
2023/09/21 11:55:22;;;;;;;3.92;2.13;;;29.30;72.80;;;;;;5086250;28;20193;-71
2023/09/21 11:57:50;;;;;;;2.33;2.13;;;29.30;72.80;;;;;;5083446;28;20668;-71
2023/09/21 12:00:37;;;;;;;1.88;1.77;;;29.40;72.60;;;;;;5080001;28;20660;-71
2023/09/21 12:03:04;;;;;;;2.03;1.83;;;29.40;72.20;;;;;;5080800;28;20314;-70
2023/09/21 12:05:32;;;;;;;3.42;1.90;;;29.50;72.50;;;;;;5087753;28;20200;-71
2023/09/21 12:07:59;;;;;;;2.20;2.05;;;29.60;72.40;;;;;;5085209;28;20277;-72
2023/09/21 12:10:26;;;;;;;5.65;2.05;;;29.70;72.40;;;;;;5083650;28;20562;-73
2023/09/21 12:12:55;;;;;;;2.25;1.73;;;29.80;72.10;;;;;;5082174;28;20247;-73
2023/09/21 12:15:22;;;;;;;1.90;1.80;;;29.90;71.90;;;;;;5080253;28;20199;-71
2023/09/21 12:17:50;;;;;;;1.80;1.70;;;30.00;71.50;;;;;;5079745;28;20192;-72
2023/09/21 12:20:18;;;;;;;2.30;2.13;;;30.10;71.60;;;;;;5086805;28;20235;-72
2023/09/21 12:22:46;;;;;;;2.03;1.92;;;30.30;71.40;;;;;;5079582;28;20188;-72
2023/09/21 12:25:14;;;;;;;2.00;1.90;;;30.30;71.20;;;;;;5087474;28;20208;-72
2023/09/21 12:27:42;;;;;;;3.00;1.92;;;30.40;71.20;;;;;;5082108;28;20228;-72
2023/09/21 12:30:14;;;;;;;1.88;1.77;;;30.50;71.00;;;;;;5080812;28;20371;-72
2023/09/21 12:32:41;;;;;;;2.28;1.83;;;30.50;70.70;;;;;;5083684;28;20196;-72
2023/09/21 12:35:09;;;;;;;2.20;1.85;;;30.60;70.60;;;;;;5085329;28;20201;-72
2023/09/21 12:37:37;;;;;;;1.77;1.67;;;30.60;70.40;;;;;;5065851;28;20258;-72
2023/09/21 12:40:11;;;;;;;6.15;2.08;;;30.60;70.10;;;;;;5087149;28;20201;-72
2023/09/21 12:42:39;;;;;;;2.13;2.00;;;30.60;70.20;;;;;;5087275;28;20188;-73
2023/09/21 12:45:08;;;;;;;2.38;2.17;;;30.70;70.40;;;;;;5086949;28;20253;-73
2023/09/21 12:47:37;;;;;;;2.15;1.90;;;30.70;69.80;;;;;;5086020;28;20220;-73
2023/09/21 12:50:06;;;;;;;1.80;1.70;;;30.70;69.90;;;;;;5086836;28;20245;-73
2023/09/21 12:52:33;;;;;;;8.88;3.22;;;30.80;69.80;;;;;;5087400;28;20220;-73
2023/09/21 12:55:01;;;;;;;2.45;2.25;;;30.90;69.50;;;;;;5084508;28;20250;-73
2023/09/21 12:57:28;;;;;;;2.00;1.90;;;30.80;69.00;;;;;;5080852;28;20196;-72